IBOSC LIMF-LIMG
Flight info
| Callsign | IBOSC |
|---|---|
| Flight time | 0h 49m |
| Altitude | 11000 |
| Route | TOP LAGEN DCT IXITO |
| Aircraft | S22T/L-SDGRY/S |
Departure
| Time | 2026-05-05 16:02 |
|---|---|
| Airport | Turin Airport (LIMF) |
Arrival
| Time | 2026-05-05 16:51 |
|---|---|
| Airport | Riviera Villanova d'Albenga International Airport (LIMG) |
| Time | Latitude | Longitude | Altitude | Speed | Heading |
|---|---|---|---|---|---|
| 2026-05-05 15:52 | 45.19529 | 7.64606 | 985 ft | 0 kts | 103° |
| 2026-05-05 15:59 | 45.19529 | 7.64617 | 981 ft | 5 kts | 85° |
| 2026-05-05 15:59 | 45.19527 | 7.64741 | 980 ft | 18 kts | 93° |
| 2026-05-05 15:59 | 45.19525 | 7.64792 | 980 ft | 0 kts | 91° |
| 2026-05-05 16:00 | 45.19525 | 7.64810 | 983 ft | 13 kts | 90° |
| 2026-05-05 16:01 | 45.19641 | 7.64935 | 976 ft | 48 kts | 2° |
| 2026-05-05 16:01 | 45.20184 | 7.64973 | 1022 ft | 96 kts | 2° |
| 2026-05-05 16:01 | 45.20874 | 7.65053 | 1273 ft | 102 kts | 7° |
| 2026-05-05 16:01 | 45.21582 | 7.65071 | 1572 ft | 104 kts | 1° |
| 2026-05-05 16:02 | 45.22336 | 7.65112 | 1861 ft | 111 kts | 2° |
| 2026-05-05 16:02 | 45.23103 | 7.65168 | 2234 ft | 112 kts | 2° |
| 2026-05-05 16:02 | 45.23875 | 7.65254 | 2611 ft | 112 kts | 17° |
| 2026-05-05 16:02 | 45.24465 | 7.65995 | 2889 ft | 118 kts | 66° |
| 2026-05-05 16:03 | 45.24512 | 7.67092 | 3268 ft | 115 kts | 109° |
| 2026-05-05 16:03 | 45.23948 | 7.67934 | 3558 ft | 119 kts | 145° |
| 2026-05-05 16:03 | 45.23252 | 7.68532 | 3944 ft | 117 kts | 148° |
| 2026-05-05 16:03 | 45.22570 | 7.69165 | 4309 ft | 117 kts | 146° |
| 2026-05-05 16:04 | 45.21889 | 7.69806 | 4670 ft | 118 kts | 146° |
| 2026-05-05 16:04 | 45.21207 | 7.70459 | 5034 ft | 118 kts | 146° |
| 2026-05-05 16:04 | 45.20535 | 7.71106 | 5391 ft | 118 kts | 146° |
| 2026-05-05 16:04 | 45.19854 | 7.71764 | 5758 ft | 119 kts | 146° |
| 2026-05-05 16:05 | 45.19173 | 7.72428 | 6140 ft | 119 kts | 146° |
| 2026-05-05 16:05 | 45.18490 | 7.73095 | 6498 ft | 120 kts | 146° |
| 2026-05-05 16:05 | 45.17808 | 7.73776 | 6851 ft | 120 kts | 147° |
| 2026-05-05 16:05 | 45.17122 | 7.74453 | 7174 ft | 123 kts | 147° |
| 2026-05-05 16:06 | 45.16390 | 7.75174 | 7407 ft | 130 kts | 147° |
| 2026-05-05 16:06 | 45.15648 | 7.75910 | 7729 ft | 130 kts | 147° |
| 2026-05-05 16:06 | 45.14899 | 7.76645 | 8042 ft | 131 kts | 147° |
| 2026-05-05 16:06 | 45.14146 | 7.77389 | 8360 ft | 132 kts | 148° |
| 2026-05-05 16:07 | 45.13398 | 7.78125 | 8686 ft | 133 kts | 148° |
| 2026-05-05 16:07 | 45.12635 | 7.78875 | 9024 ft | 133 kts | 149° |
| 2026-05-05 16:07 | 45.11872 | 7.79626 | 9350 ft | 134 kts | 149° |
| 2026-05-05 16:07 | 45.11107 | 7.80381 | 9691 ft | 134 kts | 150° |
| 2026-05-05 16:08 | 45.10337 | 7.81137 | 10017 ft | 135 kts | 150° |
| 2026-05-05 16:08 | 45.09561 | 7.81898 | 10319 ft | 136 kts | 150° |
| 2026-05-05 16:08 | 45.08784 | 7.82662 | 10618 ft | 136 kts | 151° |
| 2026-05-05 16:08 | 45.08005 | 7.83425 | 10924 ft | 137 kts | 152° |
| 2026-05-05 16:09 | 45.07189 | 7.84221 | 11026 ft | 151 kts | 152° |
| 2026-05-05 16:09 | 45.06293 | 7.85096 | 11037 ft | 166 kts | 151° |
| 2026-05-05 16:09 | 45.05319 | 7.86054 | 11012 ft | 174 kts | 150° |
| 2026-05-05 16:09 | 45.04309 | 7.87045 | 11014 ft | 179 kts | 150° |
| 2026-05-05 16:10 | 45.03276 | 7.88059 | 11010 ft | 182 kts | 150° |
| 2026-05-05 16:10 | 45.02233 | 7.89085 | 11011 ft | 182 kts | 150° |
| 2026-05-05 16:10 | 45.01196 | 7.90102 | 10975 ft | 181 kts | 150° |
| 2026-05-05 16:10 | 45.00178 | 7.91098 | 10973 ft | 178 kts | 150° |
| 2026-05-05 16:11 | 44.99162 | 7.92090 | 10971 ft | 177 kts | 151° |
| 2026-05-05 16:11 | 44.96152 | 7.95034 | 10960 ft | 175 kts | 151° |
| 2026-05-05 16:12 | 44.95152 | 7.96013 | 10957 ft | 175 kts | 151° |
| 2026-05-05 16:12 | 44.93161 | 7.97958 | 10958 ft | 173 kts | 151° |
| 2026-05-05 16:13 | 44.90201 | 8.00844 | 10961 ft | 173 kts | 151° |
| 2026-05-05 16:13 | 44.89212 | 8.01808 | 10955 ft | 173 kts | 151° |
| 2026-05-05 16:13 | 44.88222 | 8.02773 | 10959 ft | 173 kts | 151° |
| 2026-05-05 16:14 | 44.86573 | 8.04376 | 10961 ft | 174 kts | 151° |
| 2026-05-05 16:14 | 44.84587 | 8.06308 | 10952 ft | 173 kts | 151° |
| 2026-05-05 16:15 | 44.82592 | 8.08248 | 10955 ft | 175 kts | 151° |
| 2026-05-05 16:15 | 44.80577 | 8.10204 | 10954 ft | 176 kts | 151° |
| 2026-05-05 16:16 | 44.78552 | 8.12169 | 10954 ft | 177 kts | 151° |
| 2026-05-05 16:16 | 44.76532 | 8.14123 | 10957 ft | 178 kts | 151° |
| 2026-05-05 16:17 | 44.74478 | 8.16113 | 10952 ft | 179 kts | 151° |
| 2026-05-05 16:17 | 44.73455 | 8.17104 | 10952 ft | 178 kts | 151° |
| 2026-05-05 16:18 | 44.71408 | 8.19081 | 10956 ft | 179 kts | 151° |
| 2026-05-05 16:18 | 44.70375 | 8.20082 | 10960 ft | 182 kts | 151° |
| 2026-05-05 16:18 | 44.68297 | 8.22092 | 10951 ft | 180 kts | 151° |
| 2026-05-05 16:19 | 44.67280 | 8.23073 | 10952 ft | 178 kts | 151° |
| 2026-05-05 16:19 | 44.66257 | 8.24058 | 10952 ft | 179 kts | 151° |
| 2026-05-05 16:19 | 44.64202 | 8.26043 | 10946 ft | 179 kts | 150° |
| 2026-05-05 16:20 | 44.62151 | 8.28019 | 10950 ft | 178 kts | 150° |
| 2026-05-05 16:20 | 44.60093 | 8.30000 | 10952 ft | 180 kts | 150° |
| 2026-05-05 16:21 | 44.58022 | 8.31994 | 10952 ft | 181 kts | 151° |
| 2026-05-05 16:22 | 44.54928 | 8.34965 | 10942 ft | 180 kts | 150° |
| 2026-05-05 16:22 | 44.52867 | 8.36951 | 10943 ft | 180 kts | 150° |
| 2026-05-05 16:23 | 44.50805 | 8.38928 | 10947 ft | 180 kts | 150° |
| 2026-05-05 16:23 | 44.49773 | 8.39915 | 10949 ft | 180 kts | 150° |
| 2026-05-05 16:23 | 44.47723 | 8.41874 | 10943 ft | 179 kts | 150° |
| 2026-05-05 16:24 | 44.46695 | 8.42858 | 10955 ft | 179 kts | 150° |
| 2026-05-05 16:24 | 44.45665 | 8.43842 | 10954 ft | 179 kts | 150° |
| 2026-05-05 16:24 | 44.43593 | 8.45822 | 10951 ft | 181 kts | 150° |
| 2026-05-05 16:25 | 44.42557 | 8.46812 | 10949 ft | 180 kts | 150° |
| 2026-05-05 16:25 | 44.40504 | 8.48770 | 10953 ft | 178 kts | 150° |
| 2026-05-05 16:25 | 44.39481 | 8.49747 | 10952 ft | 179 kts | 149° |
| 2026-05-05 16:26 | 44.37569 | 8.51996 | 10956 ft | 181 kts | 144° |
| 2026-05-05 16:26 | 44.35641 | 8.54278 | 10950 ft | 181 kts | 144° |
| 2026-05-05 16:27 | 44.34675 | 8.55420 | 10953 ft | 182 kts | 144° |
| 2026-05-05 16:27 | 44.33712 | 8.56559 | 10949 ft | 181 kts | 144° |
| 2026-05-05 16:27 | 44.32753 | 8.57692 | 10951 ft | 180 kts | 144° |
| 2026-05-05 16:27 | 44.31795 | 8.58821 | 10946 ft | 180 kts | 144° |
| 2026-05-05 16:28 | 44.30842 | 8.59948 | 10955 ft | 180 kts | 144° |
| 2026-05-05 16:28 | 44.29900 | 8.61060 | 10951 ft | 180 kts | 144° |
| 2026-05-05 16:28 | 44.28948 | 8.62183 | 10953 ft | 179 kts | 144° |
| 2026-05-05 16:28 | 44.27992 | 8.63307 | 10951 ft | 179 kts | 144° |
| 2026-05-05 16:29 | 44.27040 | 8.64430 | 10954 ft | 179 kts | 144° |
| 2026-05-05 16:29 | 44.26087 | 8.65551 | 10954 ft | 179 kts | 144° |
| 2026-05-05 16:29 | 44.25132 | 8.66676 | 10953 ft | 180 kts | 144° |
| 2026-05-05 16:29 | 44.24178 | 8.67798 | 10949 ft | 179 kts | 144° |
| 2026-05-05 16:30 | 44.23224 | 8.68920 | 10950 ft | 179 kts | 144° |
| 2026-05-05 16:30 | 44.22283 | 8.70025 | 10951 ft | 180 kts | 144° |
| 2026-05-05 16:30 | 44.21328 | 8.71150 | 10950 ft | 179 kts | 144° |
| 2026-05-05 16:30 | 44.20375 | 8.72267 | 10949 ft | 179 kts | 144° |
| 2026-05-05 16:31 | 44.19423 | 8.73386 | 10947 ft | 179 kts | 144° |
| 2026-05-05 16:31 | 44.18469 | 8.74506 | 10948 ft | 179 kts | 144° |
| 2026-05-05 16:31 | 44.17518 | 8.75621 | 10947 ft | 179 kts | 144° |
| 2026-05-05 16:31 | 44.16566 | 8.76740 | 10947 ft | 179 kts | 144° |
| 2026-05-05 16:32 | 44.15549 | 8.77695 | 10945 ft | 174 kts | 166° |
| 2026-05-05 16:32 | 44.14401 | 8.77608 | 10793 ft | 173 kts | 204° |
| 2026-05-05 16:32 | 44.13497 | 8.76478 | 10584 ft | 179 kts | 229° |
| 2026-05-05 16:32 | 44.12723 | 8.75098 | 10372 ft | 182 kts | 230° |
| 2026-05-05 16:33 | 44.12096 | 8.73559 | 10155 ft | 187 kts | 250° |
| 2026-05-05 16:33 | 44.11799 | 8.71794 | 9949 ft | 184 kts | 255° |
| 2026-05-05 16:33 | 44.11543 | 8.70100 | 9718 ft | 174 kts | 255° |
| 2026-05-05 16:33 | 44.11305 | 8.68514 | 9466 ft | 161 kts | 255° |
| 2026-05-05 16:34 | 44.11083 | 8.67028 | 9210 ft | 153 kts | 254° |
| 2026-05-05 16:34 | 44.10876 | 8.65608 | 8961 ft | 147 kts | 254° |
| 2026-05-05 16:34 | 44.10674 | 8.64229 | 8714 ft | 143 kts | 254° |
| 2026-05-05 16:34 | 44.10428 | 8.62909 | 8463 ft | 138 kts | 238° |
| 2026-05-05 16:35 | 44.09938 | 8.61807 | 8227 ft | 136 kts | 243° |
| 2026-05-05 16:35 | 44.09622 | 8.60567 | 7996 ft | 136 kts | 248° |
| 2026-05-05 16:35 | 44.09331 | 8.59325 | 7755 ft | 134 kts | 248° |
| 2026-05-05 16:35 | 44.09050 | 8.58093 | 7502 ft | 133 kts | 248° |
| 2026-05-05 16:36 | 44.08774 | 8.56868 | 7257 ft | 132 kts | 248° |
| 2026-05-05 16:36 | 44.08499 | 8.55651 | 7008 ft | 132 kts | 249° |
| 2026-05-05 16:36 | 44.08226 | 8.54438 | 6762 ft | 131 kts | 249° |
| 2026-05-05 16:36 | 44.07954 | 8.53231 | 6523 ft | 131 kts | 249° |
| 2026-05-05 16:37 | 44.07682 | 8.52028 | 6278 ft | 130 kts | 249° |
| 2026-05-05 16:37 | 44.07411 | 8.50825 | 6018 ft | 130 kts | 249° |
| 2026-05-05 16:37 | 44.07144 | 8.49641 | 5765 ft | 130 kts | 249° |
| 2026-05-05 16:37 | 44.06873 | 8.48439 | 5511 ft | 130 kts | 249° |
| 2026-05-05 16:38 | 44.06604 | 8.47247 | 5298 ft | 128 kts | 249° |
| 2026-05-05 16:38 | 44.06340 | 8.46080 | 5090 ft | 126 kts | 249° |
| 2026-05-05 16:38 | 44.06081 | 8.44931 | 4880 ft | 124 kts | 249° |
| 2026-05-05 16:38 | 44.05822 | 8.43791 | 4673 ft | 124 kts | 249° |
| 2026-05-05 16:39 | 44.05565 | 8.42655 | 4463 ft | 123 kts | 249° |
| 2026-05-05 16:39 | 44.05284 | 8.41437 | 4288 ft | 142 kts | 249° |
| 2026-05-05 16:39 | 44.05129 | 8.40091 | 4224 ft | 142 kts | 280° |
| 2026-05-05 16:39 | 44.05643 | 8.38971 | 4149 ft | 138 kts | 323° |
| 2026-05-05 16:40 | 44.06514 | 8.38598 | 4071 ft | 133 kts | 8° |
| 2026-05-05 16:40 | 44.07309 | 8.39131 | 3998 ft | 125 kts | 48° |
| 2026-05-05 16:40 | 44.07698 | 8.40123 | 3982 ft | 113 kts | 82° |
| 2026-05-05 16:40 | 44.07710 | 8.41166 | 3981 ft | 104 kts | 92° |
| 2026-05-05 16:41 | 44.07719 | 8.42146 | 3984 ft | 100 kts | 92° |
| 2026-05-05 16:41 | 44.07725 | 8.43142 | 3987 ft | 105 kts | 92° |
| 2026-05-05 16:41 | 44.07729 | 8.44178 | 3999 ft | 109 kts | 92° |
| 2026-05-05 16:41 | 44.07734 | 8.45261 | 4001 ft | 115 kts | 92° |
| 2026-05-05 16:42 | 44.07707 | 8.46379 | 4000 ft | 116 kts | 105° |
| 2026-05-05 16:42 | 44.07271 | 8.47314 | 3999 ft | 119 kts | 139° |
| 2026-05-05 16:42 | 44.06517 | 8.47737 | 4002 ft | 121 kts | 174° |
| 2026-05-05 16:42 | 44.05731 | 8.47453 | 3990 ft | 116 kts | 209° |
| 2026-05-05 16:43 | 44.05220 | 8.46613 | 3975 ft | 114 kts | 245° |
| 2026-05-05 16:43 | 44.05128 | 8.45547 | 3976 ft | 111 kts | 269° |
| 2026-05-05 16:43 | 44.05025 | 8.44492 | 3982 ft | 110 kts | 251° |
| 2026-05-05 16:43 | 44.04871 | 8.43440 | 3981 ft | 112 kts | 263° |
| 2026-05-05 16:44 | 44.04974 | 8.42369 | 3989 ft | 114 kts | 293° |
| 2026-05-05 16:44 | 44.05169 | 8.41305 | 3876 ft | 117 kts | 268° |
| 2026-05-05 16:44 | 44.05210 | 8.40152 | 3747 ft | 121 kts | 271° |
| 2026-05-05 16:44 | 44.05225 | 8.38989 | 3614 ft | 123 kts | 270° |
| 2026-05-05 16:45 | 44.05227 | 8.37799 | 3475 ft | 123 kts | 269° |
| 2026-05-05 16:45 | 44.05226 | 8.36602 | 3332 ft | 125 kts | 268° |
| 2026-05-05 16:45 | 44.05209 | 8.35393 | 3185 ft | 125 kts | 268° |
| 2026-05-05 16:45 | 44.05194 | 8.34176 | 3036 ft | 126 kts | 268° |
| 2026-05-05 16:46 | 44.05180 | 8.32967 | 2891 ft | 123 kts | 268° |
| 2026-05-05 16:46 | 44.05166 | 8.31804 | 2728 ft | 118 kts | 268° |
| 2026-05-05 16:46 | 44.05151 | 8.30692 | 2559 ft | 113 kts | 269° |
| 2026-05-05 16:46 | 44.05138 | 8.29621 | 2426 ft | 109 kts | 268° |
| 2026-05-05 16:47 | 44.05124 | 8.28577 | 2341 ft | 110 kts | 269° |
| 2026-05-05 16:47 | 44.05110 | 8.27515 | 2304 ft | 105 kts | 269° |
| 2026-05-05 16:47 | 44.05098 | 8.26552 | 2203 ft | 98 kts | 269° |
| 2026-05-05 16:47 | 44.05085 | 8.25603 | 2041 ft | 99 kts | 269° |
| 2026-05-05 16:48 | 44.05073 | 8.24645 | 1886 ft | 99 kts | 269° |
| 2026-05-05 16:48 | 44.05061 | 8.23693 | 1731 ft | 98 kts | 269° |
| 2026-05-05 16:48 | 44.05049 | 8.22738 | 1589 ft | 100 kts | 269° |
| 2026-05-05 16:48 | 44.05036 | 8.21766 | 1475 ft | 102 kts | 269° |
| 2026-05-05 16:49 | 44.05022 | 8.20791 | 1361 ft | 97 kts | 270° |
| 2026-05-05 16:49 | 44.05013 | 8.19886 | 1246 ft | 93 kts | 270° |
| 2026-05-05 16:49 | 44.05001 | 8.18988 | 1130 ft | 92 kts | 270° |
| 2026-05-05 16:49 | 44.05000 | 8.18108 | 1015 ft | 90 kts | 273° |
| 2026-05-05 16:50 | 44.05008 | 8.17231 | 881 ft | 92 kts | 274° |
| 2026-05-05 16:50 | 44.05002 | 8.16342 | 747 ft | 94 kts | 271° |
| 2026-05-05 16:50 | 44.04977 | 8.15455 | 558 ft | 90 kts | 272° |
| 2026-05-05 16:50 | 44.04989 | 8.14600 | 374 ft | 84 kts | 279° |
| 2026-05-05 16:51 | 44.05023 | 8.13795 | 180 ft | 82 kts | 274° |
| 2026-05-05 16:51 | 44.05048 | 8.13092 | 122 ft | 56 kts | 274° |
| 2026-05-05 16:51 | 44.04947 | 8.12861 | 127 ft | 32 kts | 181° |
| 2026-05-05 16:51 | 44.04791 | 8.12981 | 123 ft | 26 kts | 113° |
| 2026-05-05 16:52 | 44.04755 | 8.13214 | 119 ft | 20 kts | 77° |
| 2026-05-05 16:52 | 44.04786 | 8.13238 | 117 ft | 4 kts | 281° |
| 2026-05-05 16:52 | 44.04784 | 8.13212 | 119 ft | 0 kts | 271° |